Contact Us:
Email: info@sawbill.com
Phone: (218)663-7150
Fax: (218)663-7980
Mail: 4620 Sawbill Trail
Box 2129
Tofte, MN 55615


Powered by
Movable Type 3.15
 
Sawbill Weather History Archives: September 2005
Current Sawbill Weather History | « August 2005 | October 2005 »


Date

High
Temperature

Low
Temperature

Barometric
Pressure

Relative
Humidity 7AM

9 AM
Temperature

Moisture

Snow

9/30/05 68 49 29.85 83% 53 0
9/29/05 54 40 29.70 77% 49 0
9/28/05 53 40 30.00 80% 40 0
9/27/05 74 49 29.80 71% 49 0
9/26/05 69 43 29.98 79% 51 0
9/25/05 60 43 29.97 83% 43 0
9/24/05 62 48 29.95 54% 60 .19"
9/23/05 62 36 30.06 79% 49 0
9/22/05 66 35 30.29 77% 35 0
9/21/05 71 46 29.98 72% 50 0
9/20/05 77 44 29.99 83% 45 0
9/19/05 61 42 29.99 89% 46 1.65"
9/18/05 69 54 30.01 90% 54 .07"
9/17/05 72 51 29.97 88% 57 .09"
9/16/05 78 46 30.03 89% 51 0
9/15/05 66 45 30.09 83% 46 0
9/14/05 67 42 30.13 81% 45 0
9/13/05 68 49 29.89 86% 49 0
9/12/05 72 57 29.75 87% 57 1.07"
9/11/05 93 64 29.93 87% 65 .07"
9/10/05 82 59 29.96 70% 69 0
9/9/05 72 55 30.02 86% 59 0
9/8/05 79 44 30.11 79% 48 0
9/7/05 78 43 30.21 77% 44 0
9/6/05 83 51 30.25 81% 51 Trace
9/5/05 78 59 30.03 81% 65 Trace
9/4/05 74 46 30.14 89% 59 0
9/3/05 71 41 30.22 85% 46 0
9/2/05 69 45 30.28 84% 46 0
9/1/05 61 52 30.01 89% 57 .13"
 


Home I Trip Planning I Rentals and Outfitting I Reservations I Campgrounds I Sawbill Store I Sawbill News I Contact

© 1997 - 2017, Sawbill Canoe Outfitters, Inc. I Privacy Policy